createdAt,value
2018-12-09T00:02:00.369Z,97830.80
2018-12-09T00:04:26.546Z,97829.03
2018-12-09T00:06:52.695Z,97821.67
2018-12-09T00:09:18.852Z,97837.70
2018-12-09T00:11:45.331Z,97831.11
2018-12-09T00:14:11.494Z,97824.95
2018-12-09T00:16:37.834Z,97822.44
2018-12-09T00:19:04.004Z,97818.92
2018-12-09T00:21:30.555Z,97813.31
2018-12-09T00:23:56.707Z,97819.27
2018-12-09T00:26:22.843Z,97819.66
2018-12-09T00:28:49.022Z,97817.05
2018-12-09T00:31:15.173Z,97814.63
2018-12-09T00:33:41.334Z,97810.88
2018-12-09T00:36:07.519Z,97810.88
2018-12-09T00:38:33.664Z,97821.53
2018-12-09T00:40:59.809Z,97815.82
2018-12-09T00:43:25.939Z,97817.44
2018-12-09T00:45:52.088Z,97818.99
2018-12-09T00:48:18.261Z,97822.52
2018-12-09T00:50:44.432Z,97818.32
2018-12-09T00:53:10.626Z,97819.45
2018-12-09T00:55:36.787Z,97821.14
2018-12-09T00:58:03.087Z,97816.31
2018-12-09T01:00:29.271Z,97812.75
2018-12-09T01:02:55.453Z,97812.22
2018-12-09T01:05:21.741Z,97817.72
2018-12-09T01:07:47.863Z,97823.33
2018-12-09T01:10:14.020Z,97823.78
2018-12-09T01:12:40.170Z,97827.52
2018-12-09T01:15:06.376Z,97822.20
2018-12-09T01:17:32.510Z,97829.57
2018-12-09T01:19:58.658Z,97823.05
2018-12-09T01:22:24.811Z,97825.66
2018-12-09T01:24:50.979Z,97830.48
2018-12-09T01:27:17.139Z,97823.51
2018-12-09T01:29:43.297Z,97828.27
2018-12-09T01:32:09.436Z,97826.43
2018-12-09T01:34:35.562Z,97826.78
2018-12-09T01:37:01.719Z,97833.12
2018-12-09T01:39:27.882Z,97827.00
2018-12-09T01:41:54.001Z,97831.50
2018-12-09T01:44:20.147Z,97826.64
2018-12-09T01:46:52.603Z,97826.11
2018-12-09T01:49:27.583Z,97823.86
2018-12-09T01:52:04.152Z,97821.63
2018-12-09T01:54:36.767Z,97817.16
2018-12-09T01:57:09.091Z,97822.97
2018-12-09T01:59:42.554Z,97824.58
2018-12-09T02:02:08.715Z,97821.89
2018-12-09T02:04:34.883Z,97822.73
2018-12-09T02:07:01.111Z,97833.09
2018-12-09T02:09:27.283Z,97827.70
2018-12-09T02:11:53.438Z,97826.78
2018-12-09T02:14:19.921Z,97832.81
2018-12-09T02:16:46.110Z,97829.92
2018-12-09T02:19:15.302Z,97839.91
2018-12-09T02:21:42.345Z,97835.53
2018-12-09T02:24:08.581Z,97838.52
2018-12-09T02:26:34.877Z,97840.83
2018-12-09T02:29:01.037Z,97841.59
2018-12-09T02:31:27.191Z,97833.02
2018-12-09T02:33:53.332Z,97836.66
2018-12-09T02:36:19.556Z,97844.69
2018-12-09T02:38:46.272Z,97840.84
2018-12-09T02:41:12.430Z,97841.12
2018-12-09T02:43:38.584Z,97841.44
2018-12-09T02:46:04.782Z,97844.33
2018-12-09T02:48:31.021Z,97844.14
2018-12-09T02:50:57.201Z,97846.30
2018-12-09T02:53:23.363Z,97775.33
2018-12-09T02:55:49.512Z,97845.83
2018-12-09T02:58:15.667Z,97848.72
2018-12-09T03:00:41.796Z,97854.33
2018-12-09T03:03:07.972Z,97851.61
2018-12-09T03:05:34.550Z,97848.47
2018-12-09T03:08:00.787Z,97854.22
2018-12-09T03:10:27.116Z,97851.81
2018-12-09T03:12:53.301Z,97851.43
2018-12-09T03:15:19.474Z,97853.02
2018-12-09T03:17:45.958Z,97850.13
2018-12-09T03:20:12.089Z,97854.05
2018-12-09T03:22:38.287Z,97856.77
2018-12-09T03:25:04.692Z,97856.84
2018-12-09T03:27:31.008Z,97854.69
2018-12-09T03:29:57.223Z,97857.76
2018-12-09T03:32:23.500Z,97849.92
2018-12-09T03:34:50.296Z,97846.57
2018-12-09T03:37:16.452Z,97851.72
2018-12-09T03:39:42.633Z,97855.34
2018-12-09T03:42:08.790Z,97853.02
2018-12-09T03:44:35.252Z,97854.45
2018-12-09T03:47:01.480Z,97854.80
2018-12-09T03:49:27.643Z,97853.14
2018-12-09T03:51:53.824Z,97851.91
2018-12-09T03:54:20.009Z,97854.98
2018-12-09T03:56:46.157Z,97852.86
2018-12-09T03:59:12.488Z,97857.23
2018-12-09T04:01:38.628Z,97859.85
2018-12-09T04:04:05.085Z,97863.20
2018-12-09T04:06:31.257Z,97861.16
2018-12-09T04:08:57.435Z,97864.69
2018-12-09T04:11:23.931Z,97853.51
2018-12-09T04:13:51.061Z,97856.47
2018-12-09T04:16:17.383Z,97857.42
2018-12-09T04:18:43.575Z,97862.54
2018-12-09T04:21:09.712Z,97855.55
2018-12-09T04:23:36.022Z,97865.53
2018-12-09T04:26:02.217Z,97859.01
2018-12-09T04:28:28.338Z,97853.78
2018-12-09T04:30:54.503Z,97858.23
2018-12-09T04:33:20.654Z,97859.47
2018-12-09T04:35:46.824Z,97854.80
2018-12-09T04:38:13.399Z,97860.59
2018-12-09T04:40:39.579Z,97862.74
2018-12-09T04:43:05.816Z,97860.59
2018-12-09T04:45:31.967Z,97860.59
2018-12-09T04:47:58.101Z,97857.52
2018-12-09T04:50:24.281Z,97867.50
2018-12-09T04:52:50.496Z,97864.51
2018-12-09T04:55:16.654Z,97867.40
2018-12-09T04:57:42.815Z,97864.78
2018-12-09T05:00:21.138Z,97867.78
2018-12-09T05:02:47.609Z,97870.39
2018-12-09T05:05:13.781Z,97864.71
2018-12-09T05:07:39.982Z,97871.62
2018-12-09T05:10:06.389Z,97870.20
2018-12-09T05:12:32.612Z,97867.41
2018-12-09T05:14:58.780Z,97872.64
2018-12-09T05:17:25.254Z,97869.29
2018-12-09T05:19:51.402Z,97871.80
2018-12-09T05:22:17.707Z,97872.56
2018-12-09T05:24:43.847Z,97867.69
2018-12-09T05:27:10.033Z,97873.41
2018-12-09T05:29:36.237Z,97873.41
2018-12-09T05:32:02.400Z,97869.00
2018-12-09T05:34:28.664Z,97863.03
2018-12-09T05:36:54.810Z,97871.81
2018-12-09T05:39:21.156Z,97868.27
2018-12-09T05:41:47.423Z,97871.92
2018-12-09T05:44:13.865Z,97873.58
2018-12-09T05:46:40.076Z,97870.96
2018-12-09T05:49:06.214Z,97868.73
2018-12-09T05:51:32.440Z,97873.04
2018-12-09T05:53:58.580Z,97869.20
2018-12-09T05:56:24.835Z,97867.89
2018-12-09T05:58:51.308Z,97872.77
2018-12-09T06:01:17.455Z,97868.08
2018-12-09T06:03:43.609Z,97873.77
2018-12-09T06:06:09.775Z,97875.37
2018-12-09T06:08:35.908Z,97876.84
2018-12-09T06:11:02.180Z,97871.27
2018-12-09T06:13:28.375Z,97867.70
2018-12-09T06:15:54.566Z,97872.93
2018-12-09T06:18:20.761Z,97878.55
2018-12-09T06:20:47.015Z,97878.08
2018-12-09T06:23:13.223Z,97874.34
2018-12-09T06:25:39.369Z,97875.37
2018-12-09T06:28:05.578Z,97866.97
2018-12-09T06:30:31.748Z,97871.16
2018-12-09T06:32:58.006Z,97868.09
2018-12-09T06:35:24.241Z,97872.19
2018-12-09T06:37:50.480Z,97871.62
2018-12-09T06:40:17.055Z,97869.78
2018-12-09T06:42:43.247Z,97869.13
2018-12-09T06:45:16.282Z,97872.56
2018-12-09T06:48:02.668Z,97876.86
2018-12-09T06:50:35.543Z,97882.27
2018-12-09T06:53:09.391Z,97878.36
2018-12-09T06:55:43.206Z,97877.16
2018-12-09T06:58:16.353Z,97881.70
2018-12-09T07:00:49.338Z,97887.31
2018-12-09T07:03:30.061Z,97883.58
2018-12-09T07:06:07.166Z,97890.68
2018-12-09T07:08:38.083Z,97893.19
2018-12-09T07:11:11.622Z,97883.78
2018-12-09T07:13:45.516Z,97889.28
2018-12-09T07:16:18.683Z,97889.92
2018-12-09T07:18:52.379Z,97886.67
2018-12-09T07:21:26.399Z,97888.55
2018-12-09T07:23:59.391Z,97891.89
2018-12-09T07:26:33.172Z,97885.28
2018-12-09T07:29:10.850Z,97896.09
2018-12-09T07:31:48.492Z,97893.86
2018-12-09T07:34:22.174Z,97895.37
2018-12-09T07:36:59.843Z,97894.70
2018-12-09T07:39:36.403Z,97889.22
2018-12-09T07:42:10.095Z,97889.30
2018-12-09T07:44:43.623Z,97888.27
2018-12-09T07:47:21.309Z,97891.27
2018-12-09T07:49:55.069Z,97898.27
2018-12-09T07:52:32.132Z,97897.14
2018-12-09T07:55:05.764Z,97899.56
2018-12-09T07:57:38.816Z,97898.36
2018-12-09T08:00:11.710Z,97894.53
2018-12-09T08:02:48.734Z,97899.11
2018-12-09T08:05:21.663Z,97898.54
2018-12-09T08:07:53.760Z,97892.39
2018-12-09T08:10:26.739Z,97907.88
2018-12-09T08:12:58.929Z,97909.66
2018-12-09T08:15:32.698Z,97912.27
2018-12-09T08:18:06.236Z,97917.42
2018-12-09T08:20:38.485Z,97915.34
2018-12-09T08:23:11.210Z,97916.00
2018-12-09T08:25:47.780Z,97916.77
2018-12-09T08:28:21.363Z,97917.42
2018-12-09T08:30:55.103Z,97918.05
2018-12-09T08:33:28.028Z,97920.97
2018-12-09T08:36:01.021Z,97925.42
2018-12-09T08:38:34.447Z,97918.08
2018-12-09T08:41:07.411Z,97933.66
2018-12-09T08:43:44.315Z,97927.50
2018-12-09T08:46:16.901Z,97929.84
2018-12-09T08:48:54.227Z,97929.34
2018-12-09T08:51:26.940Z,97932.81
2018-12-09T08:53:59.220Z,97939.54
2018-12-09T08:56:35.912Z,97949.73
2018-12-09T08:59:08.896Z,97944.95
2018-12-09T09:01:43.495Z,97954.56
2018-12-09T09:04:20.248Z,97948.14
2018-12-09T09:06:53.132Z,97957.95
2018-12-09T09:09:26.637Z,97953.08
2018-12-09T09:11:59.382Z,97959.61
2018-12-09T09:14:31.889Z,97959.27
2018-12-09T09:17:05.489Z,97958.49
2018-12-09T09:19:37.875Z,97954.11
2018-12-09T09:22:10.787Z,97953.53
2018-12-09T09:24:43.667Z,97946.73
2018-12-09T09:29:44.434Z,97954.95
2018-12-09T09:32:22.087Z,97954.56
2018-12-09T09:34:54.344Z,97951.03
2018-12-09T09:37:26.693Z,97955.69
2018-12-09T09:39:59.309Z,97884.50
2018-12-09T09:42:32.173Z,97953.19
2018-12-09T09:45:05.778Z,97947.84
2018-12-09T09:47:38.217Z,97943.92
2018-12-09T09:50:12.173Z,97956.64
2018-12-09T09:52:45.003Z,97950.84
2018-12-09T09:55:18.123Z,97940.39
2018-12-09T09:57:50.799Z,97941.77
2018-12-09T10:00:22.860Z,97940.39
2018-12-09T10:02:55.643Z,97936.66
2018-12-09T10:05:28.615Z,97942.35
2018-12-09T10:08:03.419Z,97945.63
2018-12-09T10:10:36.075Z,97939.94
2018-12-09T10:13:12.753Z,97940.20
2018-12-09T10:15:44.952Z,97939.83
2018-12-09T10:18:14.692Z,97945.33
2018-12-09T10:20:47.435Z,97944.13
2018-12-09T10:23:22.201Z,97938.44
2018-12-09T10:25:55.083Z,97951.33
2018-12-09T10:28:28.106Z,97942.83
2018-12-09T10:31:03.331Z,97945.80
2018-12-09T10:33:37.942Z,97952.64
2018-12-09T10:36:14.749Z,97956.27
2018-12-09T10:38:47.410Z,97950.95
2018-12-09T10:41:24.220Z,97961.11
2018-12-09T10:43:56.985Z,97953.27
2018-12-09T10:46:29.088Z,97956.38
2018-12-09T10:49:06.200Z,97956.27
2018-12-09T10:51:39.380Z,97948.80
2018-12-09T10:54:12.335Z,97956.84
2018-12-09T10:56:45.483Z,97956.53
2018-12-09T10:59:18.058Z,97954.88
2018-12-09T11:01:56.784Z,97955.61
2018-12-09T11:04:32.775Z,97953.65
2018-12-09T11:07:02.993Z,97961.42
2018-12-09T11:09:35.771Z,97959.73
2018-12-09T11:12:09.135Z,97960.57
2018-12-09T11:14:41.903Z,97963.08
2018-12-09T11:17:12.267Z,97961.88
2018-12-09T11:19:44.292Z,97961.88
2018-12-09T11:22:14.422Z,97963.46
2018-12-09T11:24:47.129Z,97966.19
2018-12-09T11:27:17.317Z,97966.27
2018-12-09T11:29:49.671Z,97960.95
2018-12-09T11:32:19.608Z,97960.84
2018-12-09T11:34:49.636Z,97966.19
2018-12-09T11:37:21.755Z,97963.08
2018-12-09T11:39:54.479Z,97977.96
2018-12-09T11:42:27.247Z,97969.92
2018-12-09T11:45:04.415Z,97975.69
2018-12-09T11:47:36.884Z,97971.88
2018-12-09T11:50:07.696Z,97976.65
2018-12-09T11:52:37.280Z,97978.42
2018-12-09T11:55:07.052Z,97980.65
2018-12-09T11:57:37.107Z,97980.77
2018-12-09T12:00:10.610Z,97982.88
2018-12-09T12:02:40.414Z,97989.80
2018-12-09T12:05:10.128Z,97997.27
2018-12-09T12:07:40.018Z,97992.22
2018-12-09T12:10:16.376Z,97997.95
2018-12-09T12:12:49.159Z,98004.00
2018-12-09T12:15:22.144Z,97997.37
2018-12-09T12:17:54.975Z,98002.69
2018-12-09T12:20:27.620Z,97998.95
2018-12-09T12:23:00.470Z,98002.03
2018-12-09T12:25:30.154Z,98002.60
2018-12-09T12:28:00.307Z,98008.22
2018-12-09T12:30:29.989Z,98014.30
2018-12-09T12:32:59.851Z,98006.91
2018-12-09T12:35:32.472Z,98010.83
2018-12-09T12:38:05.029Z,98020.52
2018-12-09T12:40:35.231Z,98025.56
2018-12-09T12:43:09.976Z,98021.29
2018-12-09T12:45:42.809Z,98019.87
2018-12-09T12:48:15.633Z,98020.72
2018-12-09T12:50:48.267Z,98026.41
2018-12-09T12:53:17.847Z,98027.37
2018-12-09T12:55:47.527Z,98022.22
2018-12-09T12:58:13.650Z,98033.14
2018-12-09T13:00:39.819Z,98025.49
2018-12-09T13:03:09.655Z,98021.84
2018-12-09T13:05:35.902Z,98035.58
2018-12-09T13:08:02.085Z,98029.69
2018-12-09T13:10:35.090Z,98022.97
2018-12-09T13:13:07.795Z,98033.43
2018-12-09T13:15:34.044Z,98025.89
2018-12-09T13:18:00.324Z,98035.50
2018-12-09T13:20:26.515Z,98043.54
2018-12-09T13:22:52.700Z,98037.64
2018-12-09T13:25:27.425Z,98041.19
2018-12-09T13:28:00.464Z,98038.00
2018-12-09T13:30:30.449Z,98039.14
2018-12-09T13:33:04.723Z,98043.88
2018-12-09T13:35:37.187Z,98048.84
2018-12-09T13:38:03.491Z,98049.31
2018-12-09T13:40:29.703Z,98054.19
2018-12-09T13:42:55.848Z,98051.57
2018-12-09T13:45:22.135Z,98060.88
2018-12-09T13:47:48.419Z,98060.41
2018-12-09T13:50:14.665Z,98065.58
2018-12-09T13:52:40.791Z,98062.84
2018-12-09T13:55:06.963Z,98072.11
2018-12-09T13:57:33.087Z,98068.57
2018-12-09T13:59:59.453Z,98071.34
2018-12-09T14:02:25.699Z,98079.30
2018-12-09T14:04:53.553Z,98082.38
2018-12-09T14:07:19.953Z,98087.60
2018-12-09T14:09:46.175Z,98096.02
2018-12-09T14:12:12.320Z,98100.94
2018-12-09T14:14:38.493Z,98096.94
2018-12-09T14:17:04.811Z,98100.58
2018-12-09T14:19:30.967Z,98112.99
2018-12-09T14:21:57.122Z,98111.86
2018-12-09T14:24:23.423Z,98116.95
2018-12-09T14:26:49.628Z,98116.11
2018-12-09T14:29:16.007Z,98121.20
2018-12-09T14:31:42.392Z,98118.41
2018-12-09T14:34:08.620Z,98120.88
2018-12-09T14:36:34.803Z,98120.77
2018-12-09T14:39:00.930Z,98122.33
2018-12-09T14:41:27.163Z,98114.83
2018-12-09T14:43:53.271Z,98119.67
2018-12-09T14:46:19.450Z,98122.45
2018-12-09T14:48:45.664Z,98123.70
2018-12-09T14:51:11.914Z,98118.92
2018-12-09T14:53:38.064Z,98116.70
2018-12-09T14:56:04.462Z,98117.06
2018-12-09T14:58:30.754Z,98129.49
2018-12-09T15:00:56.923Z,98136.88
2018-12-09T15:03:23.135Z,98124.94
2018-12-09T15:05:49.262Z,98120.48
2018-12-09T15:08:15.669Z,98121.45
2018-12-09T15:10:41.907Z,98131.05
2018-12-09T15:13:08.071Z,98131.52
2018-12-09T15:15:34.242Z,98124.45
2018-12-09T15:18:00.421Z,98132.29
2018-12-09T15:20:26.666Z,98133.49
2018-12-09T15:22:52.803Z,98125.41
2018-12-09T15:25:18.951Z,98139.67
2018-12-09T15:27:45.127Z,98135.51
2018-12-09T15:30:11.655Z,98134.09
2018-12-09T15:32:37.802Z,98134.77
2018-12-09T15:35:04.682Z,98141.80
2018-12-09T15:37:30.955Z,98149.53
2018-12-09T15:39:57.098Z,98142.82
2018-12-09T15:42:23.295Z,98144.41
2018-12-09T15:44:49.435Z,98155.82
2018-12-09T15:47:15.578Z,98152.25
2018-12-09T15:49:41.795Z,98151.44
2018-12-09T15:52:07.999Z,98156.28
2018-12-09T15:54:34.655Z,98146.95
2018-12-09T15:57:00.807Z,98165.65
2018-12-09T15:59:32.003Z,98169.85
2018-12-09T16:01:55.143Z,98167.77
2018-12-09T16:04:21.299Z,98174.70
2018-12-09T16:06:47.461Z,98079.48
2018-12-09T16:09:13.867Z,98176.46
2018-12-09T16:11:39.991Z,98177.48
2018-12-09T16:14:06.128Z,98176.46
2018-12-09T16:16:32.326Z,98183.45
2018-12-09T16:18:58.533Z,98179.71
2018-12-09T16:21:24.724Z,98184.94
2018-12-09T16:23:50.876Z,98183.17
2018-12-09T16:26:17.007Z,98191.02
2018-12-09T16:28:43.218Z,98188.86
2018-12-09T16:31:09.439Z,98188.12
2018-12-09T16:33:35.652Z,98192.96
2018-12-09T16:36:01.834Z,98194.66
2018-12-09T16:38:28.327Z,98192.11
2018-12-09T16:40:54.713Z,98190.80
2018-12-09T16:43:20.911Z,98188.75
2018-12-09T16:45:47.128Z,98195.22
2018-12-09T16:48:13.371Z,98195.58
2018-12-09T16:50:39.557Z,98198.75
2018-12-09T16:53:05.683Z,98189.98
2018-12-09T16:55:31.827Z,98193.98
2018-12-09T16:57:58.019Z,98195.29
2018-12-09T17:00:24.247Z,98199.95
2018-12-09T17:02:50.402Z,98201.37
2018-12-09T17:05:16.542Z,98202.28
2018-12-09T17:07:42.684Z,98199.77
2018-12-09T17:10:08.894Z,98202.00
2018-12-09T17:12:35.059Z,98203.52
2018-12-09T17:15:01.246Z,98204.66
2018-12-09T17:17:27.395Z,98206.14
2018-12-09T17:19:53.572Z,98217.52
2018-12-09T17:22:19.793Z,98212.28
2018-12-09T17:24:45.967Z,98217.97
2018-12-09T17:27:12.116Z,98221.44
2018-12-09T17:29:38.487Z,98224.13
2018-12-09T17:32:04.708Z,98226.10
2018-12-09T17:34:30.852Z,98235.75
2018-12-09T17:36:57.098Z,98237.05
2018-12-09T17:39:23.230Z,98237.52
2018-12-09T17:41:49.392Z,98239.28
2018-12-09T17:44:15.547Z,98239.80
2018-12-09T17:46:41.701Z,98240.76
2018-12-09T17:49:07.862Z,98242.81
2018-12-09T17:51:34.007Z,98245.36
2018-12-09T17:54:00.179Z,98252.81
2018-12-09T17:56:26.394Z,98253.48
2018-12-09T17:58:52.527Z,98257.48
2018-12-09T18:01:18.797Z,98250.13
2018-12-09T18:03:44.911Z,98254.68
2018-12-09T18:06:11.097Z,98254.51
2018-12-09T18:08:37.251Z,98256.73
2018-12-09T18:11:03.515Z,98255.98
2018-12-09T18:13:29.694Z,98260.73
2018-12-09T18:15:59.632Z,98265.14
2018-12-09T18:18:25.800Z,98259.34
2018-12-09T18:20:51.955Z,98260.83
2018-12-09T18:23:18.249Z,98266.80
2018-12-09T18:25:44.475Z,98263.66
2018-12-09T18:28:10.681Z,98258.78
2018-12-09T18:30:36.959Z,98265.33
2018-12-09T18:33:03.257Z,98278.89
2018-12-09T18:35:29.407Z,98274.48
2018-12-09T18:37:56.084Z,98268.89
2018-12-09T18:40:22.676Z,98277.66
2018-12-09T18:42:50.347Z,98273.34
2018-12-09T18:45:16.744Z,98277.19
2018-12-09T18:47:42.952Z,98273.73
2018-12-09T18:50:09.169Z,98282.13
2018-12-09T18:52:35.445Z,98271.12
2018-12-09T18:55:01.595Z,98275.42
2018-12-09T18:57:27.768Z,98280.66
2018-12-09T18:59:53.899Z,98285.03
2018-12-09T19:02:20.168Z,98280.66
2018-12-09T19:04:47.084Z,98287.55
2018-12-09T19:07:13.380Z,98286.56
2018-12-09T19:09:39.536Z,98291.47
2018-12-09T19:12:05.724Z,98296.63
2018-12-09T19:14:31.951Z,98298.62
2018-12-09T19:16:58.175Z,98297.31
2018-12-09T19:19:24.316Z,98296.22
2018-12-09T19:21:50.579Z,98297.14
2018-12-09T19:24:16.739Z,98304.14
2018-12-09T19:26:42.875Z,98303.75
2018-12-09T19:29:09.012Z,98305.45
2018-12-09T19:31:35.132Z,98302.20
2018-12-09T19:34:01.303Z,98304.43
2018-12-09T19:36:27.467Z,98302.83
2018-12-09T19:38:53.596Z,98307.60
2018-12-09T19:41:19.733Z,98308.52
2018-12-09T19:43:45.912Z,98305.38
2018-12-09T19:46:12.083Z,98302.37
2018-12-09T19:48:38.487Z,98305.55
2018-12-09T19:51:04.659Z,98305.55
2018-12-09T19:53:30.872Z,98311.52
2018-12-09T19:55:57.041Z,98316.76
2018-12-09T19:58:29.444Z,98316.98
2018-12-09T20:00:55.580Z,98317.27
2018-12-09T20:03:21.733Z,98319.88
2018-12-09T20:05:47.987Z,98322.04
2018-12-09T20:08:14.242Z,98326.88
2018-12-09T20:10:40.475Z,98322.43
2018-12-09T20:13:06.607Z,98322.89
2018-12-09T20:15:32.791Z,98330.05
2018-12-09T20:17:58.955Z,98326.88
2018-12-09T20:20:25.111Z,98328.02
2018-12-09T20:22:51.305Z,98339.78
2018-12-09T20:25:17.577Z,98337.95
2018-12-09T20:27:50.419Z,98341.94
2018-12-09T20:30:16.592Z,98351.73
2018-12-09T20:32:42.732Z,98340.05
2018-12-09T20:35:08.991Z,98359.05
2018-12-09T20:37:35.119Z,98364.28
2018-12-09T20:40:01.293Z,98371.11
2018-12-09T20:42:27.470Z,98367.98
2018-12-09T20:44:53.611Z,98367.81
2018-12-09T20:47:19.756Z,98368.27
2018-12-09T20:49:45.908Z,98369.50
2018-12-09T20:52:18.888Z,98372.19
2018-12-09T20:54:45.329Z,98373.11
2018-12-09T20:57:11.499Z,98371.73
2018-12-09T20:59:37.642Z,98369.64
2018-12-09T21:02:03.792Z,98372.19
2018-12-09T21:04:29.911Z,98374.41
2018-12-09T21:06:56.194Z,98378.66
2018-12-09T21:09:22.353Z,98380.33
2018-12-09T21:11:48.527Z,98381.47
2018-12-09T21:14:14.741Z,98382.25
2018-12-09T21:16:41.012Z,98382.08
2018-12-09T21:19:08.015Z,98388.23
2018-12-09T21:21:34.316Z,98383.09
2018-12-09T21:24:00.432Z,98386.92
2018-12-09T21:26:26.668Z,98385.33
2018-12-09T21:28:52.796Z,98392.94
2018-12-09T21:31:19.019Z,98386.40
2018-12-09T21:33:45.177Z,98392.28
2018-12-09T21:36:11.326Z,98401.37
2018-12-09T21:38:37.762Z,98394.66
2018-12-09T21:41:03.932Z,98403.52
2018-12-09T21:43:30.095Z,98407.91
2018-12-09T21:45:56.227Z,98410.59
2018-12-09T21:48:22.382Z,98418.83
2018-12-09T21:50:48.514Z,98414.52
2018-12-09T21:53:14.767Z,98413.20
2018-12-09T21:55:40.974Z,98431.62
2018-12-09T21:58:07.140Z,98426.78
2018-12-09T22:00:33.252Z,98434.98
2018-12-09T22:02:59.411Z,98442.77
2018-12-09T22:05:25.555Z,98442.05
2018-12-09T22:07:51.690Z,98446.81
2018-12-09T22:10:17.849Z,98449.83
2018-12-09T22:12:44.235Z,98448.06
2018-12-09T22:15:10.355Z,98451.03
2018-12-09T22:17:36.516Z,98457.34
2018-12-09T22:20:03.520Z,98459.34
2018-12-09T22:22:29.802Z,98466.33
2018-12-09T22:24:55.919Z,98461.88
2018-12-09T22:27:22.062Z,98467.58
2018-12-09T22:29:48.194Z,98468.95
2018-12-09T22:32:14.387Z,98474.28
2018-12-09T22:34:40.507Z,98476.51
2018-12-09T22:37:06.719Z,98482.20
2018-12-09T22:39:32.849Z,98480.44
2018-12-09T22:41:59.066Z,98483.91
2018-12-09T22:44:25.347Z,98482.20
2018-12-09T22:46:51.539Z,98483.58
2018-12-09T22:49:17.702Z,98490.52
2018-12-09T22:51:43.896Z,98494.05
2018-12-09T22:54:10.028Z,98499.27
2018-12-09T22:56:36.203Z,98507.06
2018-12-09T22:59:02.343Z,98511.45
2018-12-09T23:01:28.491Z,98515.20
2018-12-09T23:03:54.775Z,98506.14
2018-12-09T23:06:20.916Z,98516.97
2018-12-09T23:08:47.173Z,98519.59
2018-12-09T23:11:13.309Z,98532.22
2018-12-09T23:13:39.582Z,98530.16
2018-12-09T23:16:05.838Z,98534.93
2018-12-09T23:18:32.226Z,98537.13
2018-12-09T23:20:58.400Z,98534.21
2018-12-09T23:23:24.579Z,98537.91
2018-12-09T23:25:50.765Z,98545.76
2018-12-09T23:28:16.949Z,98543.70
2018-12-09T23:30:43.148Z,98547.39
2018-12-09T23:33:09.291Z,98547.23
2018-12-09T23:35:35.414Z,98552.11
2018-12-09T23:38:01.563Z,98560.11
2018-12-09T23:40:27.842Z,98560.63
2018-12-09T23:42:53.959Z,98558.16
2018-12-09T23:45:20.087Z,98560.55
2018-12-09T23:47:46.294Z,98556.22
2018-12-09T23:50:12.527Z,98566.86
2018-12-09T23:52:38.686Z,98573.33
2018-12-09T23:55:04.980Z,98566.00
2018-12-09T23:57:31.134Z,98574.55
2018-12-09T23:59:57.299Z,98577.48
